Washington, DC

7:55 AM EST on December 09, 2016 (GMT -0500)
Eckington Pl, NE | | Change Station

Elev 90 ft 38.91 °N, 77.01 °W | Updated 2 minutes ago

Clear
Clear
30.7 °F
Feels Like 22 °F
N
10.0
Wind Variable Wind from WSW
Gusts 19.0 mph

Today
High -- | Low -- °F
--% Chance of Precip.
Yesterday
High -- | Low -- °F
Precip. -- in
Pressure 30.30 in
Visibility 10.0 miles
Clouds Clear
Windchill 22 °F
Dew Point 16 °F
Humidity 53%
Rainfall Not available.
Snow Depth Not available.
7:15 AM 4:45 PM
Waxing Gibbous, 73% visible
METAR KDCA 091252Z 29012G16KT 10SM CLR M01/M10 A3030 RMK AO2 SLP259 T10061100
Pressure 30.30 in
Visibility 10.0 miles
Clouds Clear
Windchill 22 °F
Dew Point 16 °F
Humidity 53%
Rainfall Not available.
Snow Depth Not available.
7:15 AM 4:45 PM
Waxing Gibbous, 73% visible
METAR KDCA 091252Z 29012G16KT 10SM CLR M01/M10 A3030 RMK AO2 SLP259 T10061100

10-Day Weather Forecast

Almanac

Astronomy

Dec. 09, 2016 Rise Set
Actual Time
Civil Twilight
Nautical Twilight
Astronomical Twilight
Moon
Length of Visible Light
Length of Day
Tomorrow will be .
, % of the Moon is Illuminated

Today's Extremes

State Highs State Lows

Community

WunderPhotos

Upload Photos

1,956,407 photos uploaded!

WunderBlog® & News

Nearby

Air Quality

  Air Quality AQ Index Pollutant
Not available.

Snow Depth

Station Depth Elevation

Earthquake Activity

City Distance Mag. Time & Date
Minimum magnitude displayed is 2.5.

Coastal Water Temperatures

Place Temperature

Stations

Nearby Weather Stations

Station Location Temp. Windchill Dew Point Humidity Wind Precip. Elev Updated Type
                   

Watches & Warnings

There are currently no watches in effect.